sensor_id;sensor_type;location;lat;lon;timestamp;temperature;humidity
54264;DHT22;40178;53.042;6.406;2022-12-18T00:02:06;-3.50;99.90
54264;DHT22;40178;53.042;6.406;2022-12-18T00:04:32;-3.60;99.90
54264;DHT22;40178;53.042;6.406;2022-12-18T00:06:57;-3.60;99.90
54264;DHT22;40178;53.042;6.406;2022-12-18T00:09:23;-3.50;99.90
54264;DHT22;40178;53.042;6.406;2022-12-18T00:11:49;-3.60;99.90
54264;DHT22;40178;53.042;6.406;2022-12-18T00:14:15;-3.60;99.90
54264;DHT22;40178;53.042;6.406;2022-12-18T00:16:43;-3.50;99.90
54264;DHT22;40178;53.042;6.406;2022-12-18T00:19:10;-3.50;99.90
54264;DHT22;40178;53.042;6.406;2022-12-18T00:21:36;-3.60;99.90
54264;DHT22;40178;53.042;6.406;2022-12-18T00:24:01;-3.60;99.90
54264;DHT22;40178;53.042;6.406;2022-12-18T00:26:32;-3.60;99.90
54264;DHT22;40178;53.042;6.406;2022-12-18T00:29:04;-3.60;99.90
54264;DHT22;40178;53.042;6.406;2022-12-18T00:31:30;-3.70;99.90
54264;DHT22;40178;53.042;6.406;2022-12-18T00:33:56;-3.60;99.90
54264;DHT22;40178;53.042;6.406;2022-12-18T00:36:24;-3.70;99.90
54264;DHT22;40178;53.042;6.406;2022-12-18T00:38:50;-3.60;99.90
54264;DHT22;40178;53.042;6.406;2022-12-18T00:41:17;-3.70;99.90
54264;DHT22;40178;53.042;6.406;2022-12-18T00:44:03;-3.70;99.90
54264;DHT22;40178;53.042;6.406;2022-12-18T00:46:29;-3.70;99.90
54264;DHT22;40178;53.042;6.406;2022-12-18T00:48:55;-3.80;99.90
54264;DHT22;40178;53.042;6.406;2022-12-18T00:51:21;-3.80;99.90
54264;DHT22;40178;53.042;6.406;2022-12-18T00:53:46;-3.70;99.90
54264;DHT22;40178;53.042;6.406;2022-12-18T00:56:12;-3.80;99.90
54264;DHT22;40178;53.042;6.406;2022-12-18T00:58:37;-3.50;99.90
54264;DHT22;40178;53.042;6.406;2022-12-18T01:01:04;-3.80;99.90
54264;DHT22;40178;53.042;6.406;2022-12-18T01:03:30;-3.90;99.90
54264;DHT22;40178;53.042;6.406;2022-12-18T01:05:56;-3.90;99.90
54264;DHT22;40178;53.042;6.406;2022-12-18T01:08:21;-4.00;99.90
54264;DHT22;40178;53.042;6.406;2022-12-18T01:10:47;-4.00;99.90
54264;DHT22;40178;53.042;6.406;2022-12-18T01:13:13;-4.00;99.90
54264;DHT22;40178;53.042;6.406;2022-12-18T01:15:39;-3.90;99.90
54264;DHT22;40178;53.042;6.406;2022-12-18T01:18:05;-4.10;99.90
54264;DHT22;40178;53.042;6.406;2022-12-18T01:20:31;-4.20;99.90
54264;DHT22;40178;53.042;6.406;2022-12-18T01:22:57;-4.20;99.90
54264;DHT22;40178;53.042;6.406;2022-12-18T01:25:23;-4.20;99.90
54264;DHT22;40178;53.042;6.406;2022-12-18T01:27:48;-4.20;99.90
54264;DHT22;40178;53.042;6.406;2022-12-18T01:30:14;-4.20;99.90
54264;DHT22;40178;53.042;6.406;2022-12-18T01:32:39;-4.30;99.90
54264;DHT22;40178;53.042;6.406;2022-12-18T01:35:05;-4.20;99.90
54264;DHT22;40178;53.042;6.406;2022-12-18T01:37:31;-4.30;99.90
54264;DHT22;40178;53.042;6.406;2022-12-18T01:39:57;-4.30;99.90
54264;DHT22;40178;53.042;6.406;2022-12-18T01:42:22;-4.30;99.90
54264;DHT22;40178;53.042;6.406;2022-12-18T01:47:22;-4.40;99.90
54264;DHT22;40178;53.042;6.406;2022-12-18T01:49:49;-4.40;99.90
54264;DHT22;40178;53.042;6.406;2022-12-18T01:52:15;-4.40;99.90
54264;DHT22;40178;53.042;6.406;2022-12-18T01:54:42;-4.50;99.90
54264;DHT22;40178;53.042;6.406;2022-12-18T01:57:08;-4.50;99.90
54264;DHT22;40178;53.042;6.406;2022-12-18T01:59:35;-4.50;99.90
54264;DHT22;40178;53.042;6.406;2022-12-18T02:02:02;-4.50;99.90
54264;DHT22;40178;53.042;6.406;2022-12-18T02:04:29;-4.60;99.90
54264;DHT22;40178;53.042;6.406;2022-12-18T02:07:07;-4.50;99.90
54264;DHT22;40178;53.042;6.406;2022-12-18T02:09:48;-4.60;99.90
54264;DHT22;40178;53.042;6.406;2022-12-18T02:12:20;-4.60;99.90
54264;DHT22;40178;53.042;6.406;2022-12-18T02:17:21;-4.60;99.90
54264;DHT22;40178;53.042;6.406;2022-12-18T02:28:44;-4.70;99.90
54264;DHT22;40178;53.042;6.406;2022-12-18T02:31:14;-4.70;99.90
54264;DHT22;40178;53.042;6.406;2022-12-18T02:33:43;-4.70;99.90
54264;DHT22;40178;53.042;6.406;2022-12-18T02:36:10;-4.70;99.90
54264;DHT22;40178;53.042;6.406;2022-12-18T02:38:38;-4.60;99.90
54264;DHT22;40178;53.042;6.406;2022-12-18T02:41:05;-4.70;99.90
54264;DHT22;40178;53.042;6.406;2022-12-18T02:43:31;-4.60;99.90
54264;DHT22;40178;53.042;6.406;2022-12-18T02:45:59;-4.80;99.90
54264;DHT22;40178;53.042;6.406;2022-12-18T02:48:32;-4.80;99.90
54264;DHT22;40178;53.042;6.406;2022-12-18T02:51:13;-4.80;99.90
54264;DHT22;40178;53.042;6.406;2022-12-18T02:53:45;-4.80;99.90
54264;DHT22;40178;53.042;6.406;2022-12-18T02:56:16;-4.90;99.90
54264;DHT22;40178;53.042;6.406;2022-12-18T02:58:52;-4.90;99.90
54264;DHT22;40178;53.042;6.406;2022-12-18T03:04:04;-5.00;99.90
54264;DHT22;40178;53.042;6.406;2022-12-18T03:06:42;-4.70;99.90
54264;DHT22;40178;53.042;6.406;2022-12-18T03:09:12;-5.10;99.90
54264;DHT22;40178;53.042;6.406;2022-12-18T03:11:41;-5.00;99.90
54264;DHT22;40178;53.042;6.406;2022-12-18T03:14:29;-5.00;99.90
54264;DHT22;40178;53.042;6.406;2022-12-18T03:16:59;-5.10;99.90
54264;DHT22;40178;53.042;6.406;2022-12-18T03:19:28;-5.20;99.90
54264;DHT22;40178;53.042;6.406;2022-12-18T03:21:56;-5.20;99.90
54264;DHT22;40178;53.042;6.406;2022-12-18T03:24:24;-5.20;99.90
54264;DHT22;40178;53.042;6.406;2022-12-18T03:26:54;-5.20;99.90
54264;DHT22;40178;53.042;6.406;2022-12-18T03:29:27;-5.30;99.90
54264;DHT22;40178;53.042;6.406;2022-12-18T03:31:56;-5.20;99.90
54264;DHT22;40178;53.042;6.406;2022-12-18T03:34:29;-5.30;99.90
54264;DHT22;40178;53.042;6.406;2022-12-18T03:36:55;-5.30;99.90
54264;DHT22;40178;53.042;6.406;2022-12-18T03:39:21;-5.30;99.90
54264;DHT22;40178;53.042;6.406;2022-12-18T03:52:20;-5.50;99.90
54264;DHT22;40178;53.042;6.406;2022-12-18T03:54:47;-5.50;99.90
54264;DHT22;40178;53.042;6.406;2022-12-18T03:57:21;-5.50;99.90
54264;DHT22;40178;53.042;6.406;2022-12-18T03:59:52;-5.50;99.90
54264;DHT22;40178;53.042;6.406;2022-12-18T04:02:21;-5.50;99.90
54264;DHT22;40178;53.042;6.406;2022-12-18T04:04:51;-5.50;99.90
54264;DHT22;40178;53.042;6.406;2022-12-18T04:07:18;-5.50;99.90
54264;DHT22;40178;53.042;6.406;2022-12-18T04:09:45;-5.60;99.90
54264;DHT22;40178;53.042;6.406;2022-12-18T04:12:11;-5.50;99.90
54264;DHT22;40178;53.042;6.406;2022-12-18T04:14:37;-5.60;99.90
54264;DHT22;40178;53.042;6.406;2022-12-18T04:17:03;-5.60;99.90
54264;DHT22;40178;53.042;6.406;2022-12-18T04:19:29;-5.60;99.90
54264;DHT22;40178;53.042;6.406;2022-12-18T04:21:54;-5.60;99.90
54264;DHT22;40178;53.042;6.406;2022-12-18T04:24:20;-5.60;99.90
54264;DHT22;40178;53.042;6.406;2022-12-18T04:26:45;-5.60;99.90
54264;DHT22;40178;53.042;6.406;2022-12-18T04:29:11;-5.70;99.90
54264;DHT22;40178;53.042;6.406;2022-12-18T04:31:37;-5.70;99.90
54264;DHT22;40178;53.042;6.406;2022-12-18T04:34:03;-5.70;99.90
54264;DHT22;40178;53.042;6.406;2022-12-18T04:36:28;-5.70;99.90
54264;DHT22;40178;53.042;6.406;2022-12-18T04:38:54;-5.70;99.90
54264;DHT22;40178;53.042;6.406;2022-12-18T04:41:20;-5.80;99.90
54264;DHT22;40178;53.042;6.406;2022-12-18T04:43:45;-5.50;99.90
54264;DHT22;40178;53.042;6.406;2022-12-18T04:46:11;-5.80;99.90
54264;DHT22;40178;53.042;6.406;2022-12-18T04:48:37;-5.80;99.90
54264;DHT22;40178;53.042;6.406;2022-12-18T04:51:03;-5.80;99.90
54264;DHT22;40178;53.042;6.406;2022-12-18T04:53:29;-5.80;99.90
54264;DHT22;40178;53.042;6.406;2022-12-18T04:56:21;-5.80;99.90
54264;DHT22;40178;53.042;6.406;2022-12-18T04:58:47;-5.80;99.90
54264;DHT22;40178;53.042;6.406;2022-12-18T05:01:15;-5.70;99.90
54264;DHT22;40178;53.042;6.406;2022-12-18T05:03:41;-5.80;99.90
54264;DHT22;40178;53.042;6.406;2022-12-18T05:06:07;-5.80;99.90
54264;DHT22;40178;53.042;6.406;2022-12-18T05:08:33;-5.80;99.90
54264;DHT22;40178;53.042;6.406;2022-12-18T05:11:06;-5.90;99.90
54264;DHT22;40178;53.042;6.406;2022-12-18T05:13:32;-5.90;99.90
54264;DHT22;40178;53.042;6.406;2022-12-18T05:15:58;-5.90;99.90
54264;DHT22;40178;53.042;6.406;2022-12-18T05:18:24;-5.90;99.90
54264;DHT22;40178;53.042;6.406;2022-12-18T05:20:51;-5.90;99.90
54264;DHT22;40178;53.042;6.406;2022-12-18T05:23:18;-4.60;99.90
54264;DHT22;40178;53.042;6.406;2022-12-18T05:25:52;-5.90;99.90
54264;DHT22;40178;53.042;6.406;2022-12-18T05:28:18;-5.90;99.90
54264;DHT22;40178;53.042;6.406;2022-12-18T05:30:49;-6.00;99.90
54264;DHT22;40178;53.042;6.406;2022-12-18T05:33:15;-6.00;99.90
54264;DHT22;40178;53.042;6.406;2022-12-18T05:35:40;-6.00;99.90
54264;DHT22;40178;53.042;6.406;2022-12-18T05:38:06;-6.00;99.90
54264;DHT22;40178;53.042;6.406;2022-12-18T05:40:31;-5.90;99.90
54264;DHT22;40178;53.042;6.406;2022-12-18T05:42:57;-6.00;99.90
54264;DHT22;40178;53.042;6.406;2022-12-18T05:45:23;-6.00;99.90
54264;DHT22;40178;53.042;6.406;2022-12-18T05:47:48;-6.00;99.90
54264;DHT22;40178;53.042;6.406;2022-12-18T05:50:14;-6.00;99.90
54264;DHT22;40178;53.042;6.406;2022-12-18T05:52:39;-6.00;99.90
54264;DHT22;40178;53.042;6.406;2022-12-18T05:55:05;-6.00;99.90
54264;DHT22;40178;53.042;6.406;2022-12-18T05:57:31;-6.00;99.90
54264;DHT22;40178;53.042;6.406;2022-12-18T05:59:56;-6.10;99.90
54264;DHT22;40178;53.042;6.406;2022-12-18T06:02:22;-6.20;99.90
54264;DHT22;40178;53.042;6.406;2022-12-18T06:04:47;-6.20;99.90
54264;DHT22;40178;53.042;6.406;2022-12-18T06:07:13;-6.20;99.90
54264;DHT22;40178;53.042;6.406;2022-12-18T06:09:38;-6.00;99.90
54264;DHT22;40178;53.042;6.406;2022-12-18T06:12:04;-6.30;99.90
54264;DHT22;40178;53.042;6.406;2022-12-18T06:14:30;-6.30;99.90
54264;DHT22;40178;53.042;6.406;2022-12-18T06:16:56;-6.30;99.90
54264;DHT22;40178;53.042;6.406;2022-12-18T06:19:21;-6.30;99.90
54264;DHT22;40178;53.042;6.406;2022-12-18T06:21:47;-6.40;99.90
54264;DHT22;40178;53.042;6.406;2022-12-18T06:24:13;-6.30;99.90
54264;DHT22;40178;53.042;6.406;2022-12-18T06:26:39;-6.30;99.90
54264;DHT22;40178;53.042;6.406;2022-12-18T06:29:05;-6.30;99.90
54264;DHT22;40178;53.042;6.406;2022-12-18T06:31:31;-6.30;99.90
54264;DHT22;40178;53.042;6.406;2022-12-18T06:33:56;-6.30;99.90
54264;DHT22;40178;53.042;6.406;2022-12-18T06:36:22;-6.30;99.90
54264;DHT22;40178;53.042;6.406;2022-12-18T06:38:48;-6.30;99.90
54264;DHT22;40178;53.042;6.406;2022-12-18T06:41:16;-6.20;99.90
54264;DHT22;40178;53.042;6.406;2022-12-18T06:43:42;-6.30;99.90
54264;DHT22;40178;53.042;6.406;2022-12-18T06:46:08;-6.30;99.90
54264;DHT22;40178;53.042;6.406;2022-12-18T06:48:34;-6.20;99.90
54264;DHT22;40178;53.042;6.406;2022-12-18T06:51:00;-6.20;99.90
54264;DHT22;40178;53.042;6.406;2022-12-18T06:53:26;-6.20;99.90
54264;DHT22;40178;53.042;6.406;2022-12-18T06:55:52;-6.20;99.90
54264;DHT22;40178;53.042;6.406;2022-12-18T06:58:18;-6.20;99.90
54264;DHT22;40178;53.042;6.406;2022-12-18T07:00:44;-6.20;99.90
54264;DHT22;40178;53.042;6.406;2022-12-18T07:03:10;-6.10;99.90
54264;DHT22;40178;53.042;6.406;2022-12-18T07:05:40;-6.20;99.90
54264;DHT22;40178;53.042;6.406;2022-12-18T07:08:06;-6.30;99.90
54264;DHT22;40178;53.042;6.406;2022-12-18T07:10:32;-6.20;99.90
54264;DHT22;40178;53.042;6.406;2022-12-18T07:12:57;-6.20;99.90
54264;DHT22;40178;53.042;6.406;2022-12-18T07:15:23;-6.20;99.90
54264;DHT22;40178;53.042;6.406;2022-12-18T07:17:48;-6.20;99.90
54264;DHT22;40178;53.042;6.406;2022-12-18T07:20:14;-6.20;99.90
54264;DHT22;40178;53.042;6.406;2022-12-18T07:22:40;-6.20;99.90
54264;DHT22;40178;53.042;6.406;2022-12-18T07:25:06;-6.20;99.90
54264;DHT22;40178;53.042;6.406;2022-12-18T07:27:32;-6.20;99.90
54264;DHT22;40178;53.042;6.406;2022-12-18T07:29:57;-6.20;99.90
54264;DHT22;40178;53.042;6.406;2022-12-18T07:32:23;-6.20;99.90
54264;DHT22;40178;53.042;6.406;2022-12-18T07:34:49;-6.20;99.90
54264;DHT22;40178;53.042;6.406;2022-12-18T07:37:14;-6.20;99.90
54264;DHT22;40178;53.042;6.406;2022-12-18T07:39:40;-6.20;99.90
54264;DHT22;40178;53.042;6.406;2022-12-18T07:42:07;-6.20;99.90
54264;DHT22;40178;53.042;6.406;2022-12-18T07:44:51;-6.20;99.90
54264;DHT22;40178;53.042;6.406;2022-12-18T07:47:16;-6.30;99.90
54264;DHT22;40178;53.042;6.406;2022-12-18T07:49:42;-6.30;99.90
54264;DHT22;40178;53.042;6.406;2022-12-18T07:52:07;-6.30;99.90
54264;DHT22;40178;53.042;6.406;2022-12-18T07:54:34;-6.30;99.90
54264;DHT22;40178;53.042;6.406;2022-12-18T07:57:00;-6.10;99.90
54264;DHT22;40178;53.042;6.406;2022-12-18T07:59:25;-6.20;99.90
54264;DHT22;40178;53.042;6.406;2022-12-18T08:01:51;-6.30;99.90
54264;DHT22;40178;53.042;6.406;2022-12-18T08:04:17;-6.20;99.90
54264;DHT22;40178;53.042;6.406;2022-12-18T08:06:42;-6.20;99.90
54264;DHT22;40178;53.042;6.406;2022-12-18T08:09:10;-6.10;99.90
54264;DHT22;40178;53.042;6.406;2022-12-18T08:11:35;-6.10;99.90
54264;DHT22;40178;53.042;6.406;2022-12-18T08:14:01;-6.10;99.90
54264;DHT22;40178;53.042;6.406;2022-12-18T08:16:27;-6.10;99.90
54264;DHT22;40178;53.042;6.406;2022-12-18T08:18:53;-6.10;99.90
54264;DHT22;40178;53.042;6.406;2022-12-18T08:21:21;-6.00;99.90
54264;DHT22;40178;53.042;6.406;2022-12-18T08:23:49;-6.00;99.90
54264;DHT22;40178;53.042;6.406;2022-12-18T08:26:15;-6.00;99.90
54264;DHT22;40178;53.042;6.406;2022-12-18T08:28:42;-5.90;99.90
54264;DHT22;40178;53.042;6.406;2022-12-18T08:31:08;-5.90;99.90
54264;DHT22;40178;53.042;6.406;2022-12-18T08:33:34;-5.90;99.90
54264;DHT22;40178;53.042;6.406;2022-12-18T08:36:00;-5.60;99.90
54264;DHT22;40178;53.042;6.406;2022-12-18T08:38:26;-5.80;99.90
54264;DHT22;40178;53.042;6.406;2022-12-18T08:40:59;-5.70;99.90
54264;DHT22;40178;53.042;6.406;2022-12-18T08:43:25;-5.70;99.90
54264;DHT22;40178;53.042;6.406;2022-12-18T08:46:09;-5.70;99.90
54264;DHT22;40178;53.042;6.406;2022-12-18T08:48:35;-5.60;99.90
54264;DHT22;40178;53.042;6.406;2022-12-18T08:51:01;-5.50;99.90
54264;DHT22;40178;53.042;6.406;2022-12-18T08:53:27;-5.50;99.90
54264;DHT22;40178;53.042;6.406;2022-12-18T08:55:53;-5.50;99.90
54264;DHT22;40178;53.042;6.406;2022-12-18T08:58:19;-5.40;99.90
54264;DHT22;40178;53.042;6.406;2022-12-18T09:00:45;-5.40;99.90
54264;DHT22;40178;53.042;6.406;2022-12-18T09:03:17;-5.20;99.90
54264;DHT22;40178;53.042;6.406;2022-12-18T09:05:45;-5.30;99.90
54264;DHT22;40178;53.042;6.406;2022-12-18T09:08:11;-5.30;99.90
54264;DHT22;40178;53.042;6.406;2022-12-18T09:10:44;-5.30;99.90
54264;DHT22;40178;53.042;6.406;2022-12-18T09:13:11;-5.20;99.90
54264;DHT22;40178;53.042;6.406;2022-12-18T09:15:41;-5.20;99.90
54264;DHT22;40178;53.042;6.406;2022-12-18T09:18:08;-4.80;99.90
54264;DHT22;40178;53.042;6.406;2022-12-18T09:20:35;-5.00;99.90
54264;DHT22;40178;53.042;6.406;2022-12-18T09:23:01;-4.60;99.90
54264;DHT22;40178;53.042;6.406;2022-12-18T09:25:29;-5.00;99.90
54264;DHT22;40178;53.042;6.406;2022-12-18T09:28:16;-4.90;99.90
54264;DHT22;40178;53.042;6.406;2022-12-18T09:30:46;-4.80;99.90
54264;DHT22;40178;53.042;6.406;2022-12-18T09:33:12;-4.70;99.90
54264;DHT22;40178;53.042;6.406;2022-12-18T09:35:39;-4.60;99.90
54264;DHT22;40178;53.042;6.406;2022-12-18T09:38:05;-4.60;99.90
54264;DHT22;40178;53.042;6.406;2022-12-18T09:40:53;-4.60;99.90
54264;DHT22;40178;53.042;6.406;2022-12-18T09:43:28;-4.40;99.90
54264;DHT22;40178;53.042;6.406;2022-12-18T09:46:05;-4.40;99.90
54264;DHT22;40178;53.042;6.406;2022-12-18T09:48:44;-4.30;99.90
54264;DHT22;40178;53.042;6.406;2022-12-18T09:51:22;-4.30;99.90
54264;DHT22;40178;53.042;6.406;2022-12-18T09:53:57;-4.20;99.90
54264;DHT22;40178;53.042;6.406;2022-12-18T09:56:25;-4.20;99.90
54264;DHT22;40178;53.042;6.406;2022-12-18T09:58:59;-3.90;99.90
54264;DHT22;40178;53.042;6.406;2022-12-18T10:01:26;-3.90;99.90
54264;DHT22;40178;53.042;6.406;2022-12-18T10:03:52;-4.10;99.90
54264;DHT22;40178;53.042;6.406;2022-12-18T10:12:23;-3.90;99.90
54264;DHT22;40178;53.042;6.406;2022-12-18T10:15:06;-3.90;99.90
54264;DHT22;40178;53.042;6.406;2022-12-18T10:17:50;-3.90;99.90
54264;DHT22;40178;53.042;6.406;2022-12-18T10:20:37;-3.90;99.90
54264;DHT22;40178;53.042;6.406;2022-12-18T10:23:13;-3.90;99.90
54264;DHT22;40178;53.042;6.406;2022-12-18T10:25:53;-3.80;99.90
54264;DHT22;40178;53.042;6.406;2022-12-18T10:28:21;-3.80;99.90
54264;DHT22;40178;53.042;6.406;2022-12-18T10:30:48;-3.80;99.90
54264;DHT22;40178;53.042;6.406;2022-12-18T10:33:16;-3.70;99.90
54264;DHT22;40178;53.042;6.406;2022-12-18T10:35:43;-3.70;99.90
54264;DHT22;40178;53.042;6.406;2022-12-18T10:41:00;-3.60;99.90
54264;DHT22;40178;53.042;6.406;2022-12-18T10:51:27;-3.30;99.90
54264;DHT22;40178;53.042;6.406;2022-12-18T10:56:26;-3.20;99.90
54264;DHT22;40178;53.042;6.406;2022-12-18T10:59:04;-3.10;99.90
54264;DHT22;40178;53.042;6.406;2022-12-18T11:04:27;-2.90;99.70
54264;DHT22;40178;53.042;6.406;2022-12-18T11:07:01;-2.90;99.00
54264;DHT22;40178;53.042;6.406;2022-12-18T11:09:33;-2.80;95.80
54264;DHT22;40178;53.042;6.406;2022-12-18T11:12:02;-2.70;96.20
54264;DHT22;40178;53.042;6.406;2022-12-18T11:14:29;-2.40;99.50
54264;DHT22;40178;53.042;6.406;2022-12-18T11:16:58;-2.70;99.90
54264;DHT22;40178;53.042;6.406;2022-12-18T11:19:38;-2.30;99.90
54264;DHT22;40178;53.042;6.406;2022-12-18T11:22:19;-2.60;94.00
54264;DHT22;40178;53.042;6.406;2022-12-18T11:24:55;-2.50;99.60
54264;DHT22;40178;53.042;6.406;2022-12-18T11:27:21;-2.50;99.90
54264;DHT22;40178;53.042;6.406;2022-12-18T11:29:50;-2.50;99.90
54264;DHT22;40178;53.042;6.406;2022-12-18T11:32:40;-2.40;98.80
54264;DHT22;40178;53.042;6.406;2022-12-18T11:35:17;-2.40;98.20
54264;DHT22;40178;53.042;6.406;2022-12-18T11:37:53;-2.40;92.80
54264;DHT22;40178;53.042;6.406;2022-12-18T11:40:30;-2.30;94.40
54264;DHT22;40178;53.042;6.406;2022-12-18T11:43:08;-2.30;94.30
54264;DHT22;40178;53.042;6.406;2022-12-18T11:45:47;-2.20;89.80
54264;DHT22;40178;53.042;6.406;2022-12-18T11:48:22;-2.20;89.30
54264;DHT22;40178;53.042;6.406;2022-12-18T11:50:58;-2.20;95.30
54264;DHT22;40178;53.042;6.406;2022-12-18T11:53:25;-2.20;89.00
54264;DHT22;40178;53.042;6.406;2022-12-18T12:01:22;-2.10;83.70
54264;DHT22;40178;53.042;6.406;2022-12-18T12:05:02;-2.10;87.10
54264;DHT22;40178;53.042;6.406;2022-12-18T12:10:15;-2.00;76.80
54264;DHT22;40178;53.042;6.406;2022-12-18T12:23:46;-1.80;61.50
54264;DHT22;40178;53.042;6.406;2022-12-18T12:29:31;-1.80;86.30
54264;DHT22;40178;53.042;6.406;2022-12-18T12:32:20;-1.70;74.00
54264;DHT22;40178;53.042;6.406;2022-12-18T12:40:01;-1.60;78.60
54264;DHT22;40178;53.042;6.406;2022-12-18T12:42:47;-1.60;64.20
54264;DHT22;40178;53.042;6.406;2022-12-18T12:45:55;-1.60;82.70
54264;DHT22;40178;53.042;6.406;2022-12-18T12:48:31;-1.60;65.10
54264;DHT22;40178;53.042;6.406;2022-12-18T12:51:01;-1.60;66.60
54264;DHT22;40178;53.042;6.406;2022-12-18T12:53:31;-1.50;61.10
54264;DHT22;40178;53.042;6.406;2022-12-18T12:55:58;-1.50;51.10
54264;DHT22;40178;53.042;6.406;2022-12-18T13:03:57;-1.40;81.00
54264;DHT22;40178;53.042;6.406;2022-12-18T13:06:59;-1.40;69.60
54264;DHT22;40178;53.042;6.406;2022-12-18T13:09:31;-1.40;51.40
54264;DHT22;40178;53.042;6.406;2022-12-18T13:12:02;-1.40;65.20
54264;DHT22;40178;53.042;6.406;2022-12-18T13:14:47;-1.40;56.40
54264;DHT22;40178;53.042;6.406;2022-12-18T13:19:56;-1.40;80.50
54264;DHT22;40178;53.042;6.406;2022-12-18T13:22:52;-1.40;70.90
54264;DHT22;40178;53.042;6.406;2022-12-18T13:25:31;-1.40;51.10
54264;DHT22;40178;53.042;6.406;2022-12-18T13:48:53;-1.30;76.50
54264;DHT22;40178;53.042;6.406;2022-12-18T13:51:20;-1.30;90.90
54264;DHT22;40178;53.042;6.406;2022-12-18T13:54:02;-1.30;50.50
54264;DHT22;40178;53.042;6.406;2022-12-18T13:56:32;-1.30;50.50
54264;DHT22;40178;53.042;6.406;2022-12-18T13:59:21;-1.10;41.30
54264;DHT22;40178;53.042;6.406;2022-12-18T14:01:55;-1.20;37.10
54264;DHT22;40178;53.042;6.406;2022-12-18T14:04:25;-1.30;52.70
54264;DHT22;40178;53.042;6.406;2022-12-18T14:07:05;-1.30;62.50
54264;DHT22;40178;53.042;6.406;2022-12-18T14:09:39;-1.30;56.20
54264;DHT22;40178;53.042;6.406;2022-12-18T14:12:06;-1.30;44.30
54264;DHT22;40178;53.042;6.406;2022-12-18T14:14:55;-1.30;66.70
54264;DHT22;40178;53.042;6.406;2022-12-18T14:17:22;-1.30;53.90
54264;DHT22;40178;53.042;6.406;2022-12-18T14:19:50;-1.30;74.00
54264;DHT22;40178;53.042;6.406;2022-12-18T14:22:21;-1.30;33.50
54264;DHT22;40178;53.042;6.406;2022-12-18T14:25:24;-1.30;55.90
54264;DHT22;40178;53.042;6.406;2022-12-18T14:27:52;-1.30;77.60
54264;DHT22;40178;53.042;6.406;2022-12-18T14:30:31;-1.40;52.10
54264;DHT22;40178;53.042;6.406;2022-12-18T14:33:09;-1.40;65.70
54264;DHT22;40178;53.042;6.406;2022-12-18T14:35:37;-1.40;80.70
54264;DHT22;40178;53.042;6.406;2022-12-18T14:40:41;-1.40;74.90
54264;DHT22;40178;53.042;6.406;2022-12-18T14:43:10;-1.40;61.30
54264;DHT22;40178;53.042;6.406;2022-12-18T14:45:36;-1.40;62.40
54264;DHT22;40178;53.042;6.406;2022-12-18T14:48:08;-1.40;41.40
54264;DHT22;40178;53.042;6.406;2022-12-18T14:50:34;-1.40;70.40
54264;DHT22;40178;53.042;6.406;2022-12-18T14:53:00;-1.40;44.70
54264;DHT22;40178;53.042;6.406;2022-12-18T14:55:26;-1.40;44.60
54264;DHT22;40178;53.042;6.406;2022-12-18T14:57:54;-1.50;72.30
54264;DHT22;40178;53.042;6.406;2022-12-18T15:00:22;-1.50;75.80
54264;DHT22;40178;53.042;6.406;2022-12-18T15:02:52;-1.20;77.60
54264;DHT22;40178;53.042;6.406;2022-12-18T15:05:26;-1.50;39.20
54264;DHT22;40178;53.042;6.406;2022-12-18T15:10:23;-1.50;52.10
54264;DHT22;40178;53.042;6.406;2022-12-18T15:20:50;-1.60;66.00
54264;DHT22;40178;53.042;6.406;2022-12-18T15:25:44;-1.60;49.50
54264;DHT22;40178;53.042;6.406;2022-12-18T15:28:21;-1.60;76.00
54264;DHT22;40178;53.042;6.406;2022-12-18T15:33:44;-1.60;53.30
54264;DHT22;40178;53.042;6.406;2022-12-18T15:36:16;-1.50;54.50
54264;DHT22;40178;53.042;6.406;2022-12-18T15:38:49;-1.60;68.20
54264;DHT22;40178;53.042;6.406;2022-12-18T15:41:16;-1.60;64.70
54264;DHT22;40178;53.042;6.406;2022-12-18T15:43:42;-1.50;43.00
54264;DHT22;40178;53.042;6.406;2022-12-18T15:46:16;-1.50;48.10
54264;DHT22;40178;53.042;6.406;2022-12-18T15:48:46;-1.50;58.80
54264;DHT22;40178;53.042;6.406;2022-12-18T15:51:22;-1.60;53.30
54264;DHT22;40178;53.042;6.406;2022-12-18T15:53:51;-1.50;65.00
54264;DHT22;40178;53.042;6.406;2022-12-18T15:56:18;-1.50;65.10
54264;DHT22;40178;53.042;6.406;2022-12-18T15:59:09;-1.50;56.30
54264;DHT22;40178;53.042;6.406;2022-12-18T16:01:36;-1.60;64.40
54264;DHT22;40178;53.042;6.406;2022-12-18T16:04:01;-1.60;58.30
54264;DHT22;40178;53.042;6.406;2022-12-18T16:06:27;-1.60;72.30
54264;DHT22;40178;53.042;6.406;2022-12-18T16:08:52;-1.60;53.90
54264;DHT22;40178;53.042;6.406;2022-12-18T16:11:22;-1.60;63.00
54264;DHT22;40178;53.042;6.406;2022-12-18T16:14:21;-1.60;71.50
54264;DHT22;40178;53.042;6.406;2022-12-18T16:16:52;-1.60;58.40
54264;DHT22;40178;53.042;6.406;2022-12-18T16:19:18;-1.60;59.50
54264;DHT22;40178;53.042;6.406;2022-12-18T16:21:45;-1.60;70.70
54264;DHT22;40178;53.042;6.406;2022-12-18T16:24:32;-1.60;72.30
54264;DHT22;40178;53.042;6.406;2022-12-18T16:26:59;-1.60;74.50
54264;DHT22;40178;53.042;6.406;2022-12-18T16:29:27;-1.60;66.00
54264;DHT22;40178;53.042;6.406;2022-12-18T16:31:57;-1.60;62.20
54264;DHT22;40178;53.042;6.406;2022-12-18T16:36:54;-1.60;84.90
54264;DHT22;40178;53.042;6.406;2022-12-18T16:39:20;-1.60;74.20
54264;DHT22;40178;53.042;6.406;2022-12-18T16:41:46;-1.60;78.40
54264;DHT22;40178;53.042;6.406;2022-12-18T16:44:12;-1.60;81.00
54264;DHT22;40178;53.042;6.406;2022-12-18T16:46:38;-1.50;83.60
54264;DHT22;40178;53.042;6.406;2022-12-18T16:49:04;-1.50;90.20
54264;DHT22;40178;53.042;6.406;2022-12-18T16:51:30;-1.50;70.70
54264;DHT22;40178;53.042;6.406;2022-12-18T16:53:59;-1.50;79.20
54264;DHT22;40178;53.042;6.406;2022-12-18T16:56:25;-1.50;84.20
54264;DHT22;40178;53.042;6.406;2022-12-18T16:58:55;-1.50;77.50
54264;DHT22;40178;53.042;6.406;2022-12-18T17:01:22;-1.50;69.20
54264;DHT22;40178;53.042;6.406;2022-12-18T17:03:55;-1.50;75.20
54264;DHT22;40178;53.042;6.406;2022-12-18T17:06:22;-1.50;79.10
54264;DHT22;40178;53.042;6.406;2022-12-18T17:09:00;-1.50;78.00
54264;DHT22;40178;53.042;6.406;2022-12-18T17:11:28;-1.40;76.60
54264;DHT22;40178;53.042;6.406;2022-12-18T17:13:54;-1.40;60.40
54264;DHT22;40178;53.042;6.406;2022-12-18T17:16:20;-1.40;69.10
54264;DHT22;40178;53.042;6.406;2022-12-18T17:18:46;-1.40;61.30
54264;DHT22;40178;53.042;6.406;2022-12-18T17:21:11;-1.40;69.90
54264;DHT22;40178;53.042;6.406;2022-12-18T17:23:39;-1.40;69.00
54264;DHT22;40178;53.042;6.406;2022-12-18T17:26:05;-1.30;62.60
54264;DHT22;40178;53.042;6.406;2022-12-18T17:28:33;-1.30;77.70
54264;DHT22;40178;53.042;6.406;2022-12-18T17:30:59;-1.30;57.70
54264;DHT22;40178;53.042;6.406;2022-12-18T17:33:25;-1.30;74.50
54264;DHT22;40178;53.042;6.406;2022-12-18T17:35:51;-1.30;79.20
54264;DHT22;40178;53.042;6.406;2022-12-18T17:38:17;-1.30;78.20
54264;DHT22;40178;53.042;6.406;2022-12-18T17:40:42;-1.30;79.70
54264;DHT22;40178;53.042;6.406;2022-12-18T17:43:09;-1.30;75.50
54264;DHT22;40178;53.042;6.406;2022-12-18T17:45:36;-1.30;87.60
54264;DHT22;40178;53.042;6.406;2022-12-18T17:48:03;-1.30;92.70
54264;DHT22;40178;53.042;6.406;2022-12-18T17:50:29;-1.30;90.00
54264;DHT22;40178;53.042;6.406;2022-12-18T17:52:55;-1.30;87.60